Cincinnati, Ohio
Traffic Map
Current Weather Conditions
Cincinnati, Ohio
Overcast Light Rain
Overcast

Feels Like: 4°
Wind Chill: Ceiling: 3800
Heat Index: Visibility: 5mi
Dew Point: Wind: 0mph
Humidity: 89% Direction: ° ()
Pressure: 29.68in Gusts: 0mph
Raw Report DataKLUK 252153Z 00000KT 5SM -RA BR SCT031 OVC038 04/03 A2968 RMK AO2 SLP053 P0003 T00440028
Traffic Incident Summary
Active as of:
Severity:
Category:
InformationThere was an issue retrieving the traffic information for this location. Please try a different location or try again shortly.
Advertisements
Track Severe Weather on mobile